createdAt,value
2022-10-12T00:00:28.680Z,28.13
2022-10-12T00:04:30.417Z,29.25
2022-10-12T00:08:32.357Z,27.50
2022-10-12T00:12:34.150Z,29.88
2022-10-12T00:16:36.293Z,27.70
2022-10-12T00:20:37.819Z,31.38
2022-10-12T00:24:42.837Z,24.02
2022-10-12T00:28:44.972Z,22.92
2022-10-12T00:32:46.825Z,23.70
2022-10-12T00:36:48.658Z,29.00
2022-10-12T00:40:50.426Z,26.42
2022-10-12T00:44:53.235Z,28.65
2022-10-12T00:49:27.128Z,27.85
2022-10-12T00:53:33.044Z,29.42
2022-10-12T00:57:34.775Z,33.67
2022-10-12T01:01:36.565Z,29.13
2022-10-12T01:05:40.412Z,34.15
2022-10-12T01:09:42.173Z,26.45
2022-10-12T01:13:43.799Z,27.27
2022-10-12T01:18:09.123Z,32.03
2022-10-12T01:22:15.936Z,28.40
2022-10-12T01:26:31.618Z,25.33
2022-10-12T01:30:36.791Z,28.10
2022-10-12T01:34:54.737Z,33.97
2022-10-12T01:39:21.490Z,25.27
2022-10-12T01:43:23.710Z,30.93
2022-10-12T01:47:25.421Z,30.02
2022-10-12T01:51:45.482Z,27.08
2022-10-12T01:55:55.952Z,25.90
2022-10-12T02:00:11.334Z,32.75
2022-10-12T02:04:19.643Z,26.92
2022-10-12T02:08:25.226Z,28.25
2022-10-12T02:12:28.724Z,27.98
2022-10-12T02:16:35.904Z,23.08
2022-10-12T02:20:38.311Z,25.65
2022-10-12T02:24:41.771Z,30.13
2022-10-12T02:28:45.020Z,24.75
2022-10-12T02:33:10.411Z,21.00
2022-10-12T02:37:15.230Z,22.20
2022-10-12T02:41:25.058Z,23.08
2022-10-12T02:45:27.959Z,21.95
2022-10-12T02:49:30.997Z,24.25
2022-10-12T02:53:32.658Z,21.42
2022-10-12T02:57:34.179Z,20.85
2022-10-12T03:01:35.759Z,26.50
2022-10-12T03:05:37.251Z,21.15
2022-10-12T03:09:38.650Z,24.88
2022-10-12T03:13:40.275Z,26.23
2022-10-12T03:17:41.882Z,25.98
2022-10-12T03:21:43.698Z,19.63
2022-10-12T03:25:45.160Z,21.35
2022-10-12T03:29:46.961Z,20.77
2022-10-12T03:33:48.578Z,29.42
2022-10-12T03:37:50.153Z,21.73
2022-10-12T03:41:51.556Z,21.23
2022-10-12T03:45:53.945Z,32.40
2022-10-12T03:49:55.977Z,31.95
2022-10-12T03:53:57.422Z,29.98
2022-10-12T03:57:59.052Z,21.55
2022-10-12T04:02:02.001Z,22.27
2022-10-12T04:06:03.793Z,18.40
2022-10-12T04:10:06.637Z,19.77
2022-10-12T04:14:08.142Z,23.52
2022-10-12T04:18:09.623Z,18.25
2022-10-12T04:22:11.830Z,23.88
2022-10-12T04:26:13.487Z,35.97
2022-10-12T04:30:15.668Z,32.15
2022-10-12T04:34:17.270Z,32.28
2022-10-12T04:38:18.751Z,32.08
2022-10-12T04:42:20.164Z,35.58
2022-10-12T04:46:21.926Z,30.88
2022-10-12T04:50:28.973Z,30.52
2022-10-12T04:54:33.018Z,38.40
2022-10-12T04:58:34.888Z,37.65
2022-10-12T05:02:36.600Z,36.70
2022-10-12T05:06:38.018Z,35.72
2022-10-12T05:10:40.445Z,45.67
2022-10-12T05:14:44.376Z,43.08
2022-10-12T05:18:45.865Z,38.72
2022-10-12T05:22:47.491Z,36.30
2022-10-12T05:26:48.884Z,35.83
2022-10-12T05:30:51.748Z,35.85
2022-10-12T05:34:53.196Z,38.17
2022-10-12T05:38:54.722Z,39.38
2022-10-12T05:42:56.103Z,37.17
2022-10-12T05:46:57.682Z,39.40
2022-10-12T05:50:59.275Z,36.17
2022-10-12T05:55:00.840Z,39.28
2022-10-12T05:59:03.662Z,33.60
2022-10-12T06:03:05.023Z,39.42
2022-10-12T06:07:09.261Z,35.53
2022-10-12T06:11:10.752Z,32.15
2022-10-12T06:15:12.213Z,36.33
2022-10-12T06:19:13.924Z,34.88
2022-10-12T06:23:15.403Z,39.60
2022-10-12T06:27:19.928Z,41.28
2022-10-12T06:31:22.023Z,40.78
2022-10-12T06:35:23.442Z,41.72
2022-10-12T06:39:25.692Z,37.60
2022-10-12T06:43:27.139Z,36.15
2022-10-12T06:47:28.526Z,35.80
2022-10-12T06:51:29.971Z,38.72
2022-10-12T06:55:31.614Z,34.83
2022-10-12T06:59:33.496Z,41.00
2022-10-12T07:03:34.962Z,38.55
2022-10-12T07:07:36.857Z,39.97
2022-10-12T07:11:38.262Z,39.58
2022-10-12T07:15:39.733Z,38.42
2022-10-12T07:19:41.123Z,45.33
2022-10-12T07:23:46.037Z,38.38
2022-10-12T07:27:48.959Z,31.90
2022-10-12T07:31:52.049Z,32.85
2022-10-12T07:36:14.466Z,33.40
2022-10-12T07:40:17.278Z,38.97
2022-10-12T07:44:19.688Z,35.05
2022-10-12T07:48:21.934Z,31.77
2022-10-12T07:52:23.604Z,36.85
2022-10-12T07:56:25.042Z,32.53
2022-10-12T08:00:27.247Z,28.75
2022-10-12T08:04:28.699Z,31.55
2022-10-12T08:08:30.097Z,29.65
2022-10-12T08:12:31.558Z,31.95
2022-10-12T08:16:33.689Z,28.35
2022-10-12T08:20:35.166Z,29.95
2022-10-12T08:24:36.731Z,26.35
2022-10-12T08:28:38.528Z,31.45
2022-10-12T08:32:40.244Z,32.92
2022-10-12T08:36:41.802Z,27.20
2022-10-12T08:40:50.910Z,33.50
2022-10-12T08:45:20.260Z,30.10
2022-10-12T08:49:24.330Z,32.03
2022-10-12T08:53:26.185Z,28.23
2022-10-12T08:57:27.661Z,23.58
2022-10-12T09:01:38.404Z,27.08
2022-10-12T09:05:44.929Z,26.40
2022-10-12T09:10:17.428Z,25.20
2022-10-12T09:14:26.424Z,30.23
2022-10-12T09:18:39.658Z,23.33
2022-10-12T09:22:44.444Z,22.63
2022-10-12T09:26:49.928Z,28.67
2022-10-12T09:31:00.472Z,23.83
2022-10-12T09:35:02.571Z,25.58
2022-10-12T09:39:06.942Z,24.08
2022-10-12T09:43:09.794Z,20.55
2022-10-12T09:47:29.489Z,23.45
2022-10-12T09:51:32.587Z,20.27
2022-10-12T09:55:34.033Z,23.15
2022-10-12T09:59:39.606Z,20.40
2022-10-12T10:03:41.184Z,19.88
2022-10-12T10:07:42.583Z,17.90
2022-10-12T10:11:44.030Z,20.25
2022-10-12T10:15:50.305Z,19.30
2022-10-12T10:19:53.192Z,19.38
2022-10-12T10:23:57.821Z,23.60
2022-10-12T10:28:22.634Z,19.70
2022-10-12T10:32:29.531Z,17.80
2022-10-12T10:36:31.882Z,21.73
2022-10-12T10:40:34.091Z,19.45
2022-10-12T10:44:36.340Z,21.58
2022-10-12T10:48:51.507Z,19.60
2022-10-12T10:53:05.523Z,17.30
2022-10-12T10:57:15.474Z,21.83
2022-10-12T11:01:29.146Z,17.17
2022-10-12T11:05:39.993Z,17.70
2022-10-12T11:09:44.180Z,20.25
2022-10-12T11:13:51.752Z,16.92
2022-10-12T11:17:59.164Z,19.25
2022-10-12T11:22:04.400Z,16.63
2022-10-12T11:26:32.390Z,15.70
2022-10-12T11:30:42.799Z,18.92
2022-10-12T11:34:49.848Z,20.50
2022-10-12T11:38:55.933Z,14.45
2022-10-12T11:43:01.175Z,16.90
2022-10-12T11:47:06.932Z,17.05
2022-10-12T11:51:08.694Z,19.13
2022-10-12T11:55:25.531Z,16.85
2022-10-12T11:59:30.043Z,15.43
2022-10-12T12:03:54.134Z,17.55
2022-10-12T12:07:56.665Z,11.75
2022-10-12T12:12:18.506Z,11.45
2022-10-12T12:16:19.936Z,20.52
2022-10-12T12:20:46.772Z,12.68
2022-10-12T12:25:10.995Z,12.48
2022-10-12T12:29:18.509Z,12.23
2022-10-12T12:33:20.162Z,12.43
2022-10-12T12:37:22.732Z,14.20
2022-10-12T12:41:57.739Z,10.63
2022-10-12T12:46:13.035Z,14.32
2022-10-12T12:50:30.663Z,13.40
2022-10-12T12:58:55.669Z,12.98
2022-10-12T13:03:42.402Z,8.85
2022-10-12T13:08:04.265Z,10.43
2022-10-12T13:12:45.866Z,8.35
2022-10-12T13:21:28.969Z,8.98
2022-10-12T13:25:37.084Z,11.48
2022-10-12T13:29:46.493Z,9.85
2022-10-12T13:33:55.899Z,9.40
2022-10-12T13:38:05.054Z,9.23
2022-10-12T13:42:06.986Z,8.43
2022-10-12T13:46:11.632Z,9.63
2022-10-12T13:50:18.590Z,7.55
2022-10-12T13:54:23.808Z,11.67
2022-10-12T13:58:29.469Z,8.38
2022-10-12T14:02:31.866Z,7.50
2022-10-12T14:06:36.923Z,8.52
2022-10-12T14:10:38.564Z,17.85
2022-10-12T14:14:41.629Z,11.48
2022-10-12T14:18:45.810Z,11.57
2022-10-12T14:22:50.810Z,12.52
2022-10-12T14:27:01.171Z,11.38
2022-10-12T14:31:02.949Z,11.60
2022-10-12T14:35:05.085Z,13.30
2022-10-12T14:39:14.558Z,12.95
2022-10-12T14:43:16.003Z,13.02
2022-10-12T14:47:41.877Z,9.20
2022-10-12T14:51:43.402Z,8.75
2022-10-12T14:55:46.928Z,11.52
2022-10-12T14:59:50.294Z,14.20
2022-10-12T15:03:52.029Z,13.45
2022-10-12T15:07:53.485Z,10.70
2022-10-12T15:11:54.898Z,13.68
2022-10-12T15:15:57.301Z,9.90
2022-10-12T15:19:58.876Z,15.20
2022-10-12T15:24:00.439Z,10.70
2022-10-12T15:28:02.795Z,9.63
2022-10-12T15:32:04.634Z,16.20
2022-10-12T15:36:06.666Z,14.60
2022-10-12T15:40:10.343Z,11.07
2022-10-12T15:44:12.708Z,16.90
2022-10-12T15:48:14.175Z,16.20
2022-10-12T15:52:16.863Z,15.43
2022-10-12T15:56:18.848Z,12.60
2022-10-12T16:00:22.855Z,15.27
2022-10-12T16:04:24.286Z,20.13
2022-10-12T16:08:25.921Z,14.20
2022-10-12T16:12:27.762Z,12.40
2022-10-12T16:16:31.355Z,14.95
2022-10-12T16:20:36.724Z,12.73
2022-10-12T16:24:38.651Z,13.05
2022-10-12T16:28:40.367Z,16.92
2022-10-12T16:32:41.892Z,13.02
2022-10-12T16:36:43.309Z,17.92
2022-10-12T16:40:44.909Z,13.88
2022-10-12T16:44:46.322Z,12.80
2022-10-12T16:48:49.265Z,11.27
2022-10-12T16:52:51.505Z,11.88
2022-10-12T16:56:53.054Z,11.10
2022-10-12T17:00:54.718Z,15.30
2022-10-12T17:04:56.336Z,15.52
2022-10-12T17:08:58.583Z,11.77
2022-10-12T17:13:00.130Z,15.50
2022-10-12T17:17:01.596Z,14.07
2022-10-12T17:21:02.966Z,14.20
2022-10-12T17:25:04.845Z,14.50
2022-10-12T17:29:09.010Z,12.40
2022-10-12T17:33:10.401Z,15.05
2022-10-12T17:37:12.564Z,14.90
2022-10-12T17:41:14.029Z,15.50
2022-10-12T17:45:15.617Z,13.70
2022-10-12T17:49:23.638Z,15.55
2022-10-12T17:53:26.451Z,16.13
2022-10-12T17:57:28.081Z,19.00
2022-10-12T18:01:30.800Z,15.38
2022-10-12T18:05:33.918Z,22.27
2022-10-12T18:09:35.532Z,15.27
2022-10-12T18:13:37.449Z,15.93
2022-10-12T18:17:38.899Z,17.92
2022-10-12T18:21:41.049Z,20.38
2022-10-12T18:25:43.178Z,21.77
2022-10-12T18:29:45.579Z,22.65
2022-10-12T18:33:47.678Z,14.52
2022-10-12T18:37:49.675Z,17.52
2022-10-12T18:41:52.055Z,19.80
2022-10-12T18:45:53.865Z,17.63
2022-10-12T18:49:55.783Z,19.92
2022-10-12T18:53:59.423Z,24.67
2022-10-12T18:58:00.844Z,20.17
2022-10-12T19:02:02.720Z,15.85
2022-10-12T19:06:10.288Z,16.73
2022-10-12T19:10:11.823Z,25.02
2022-10-12T19:14:14.779Z,18.10
2022-10-12T19:18:16.438Z,19.88
2022-10-12T19:22:18.070Z,19.98
2022-10-12T19:26:23.306Z,19.63
2022-10-12T19:30:24.901Z,19.48
2022-10-12T19:34:26.477Z,20.75
2022-10-12T19:38:28.085Z,19.27
2022-10-12T19:42:29.466Z,16.77
2022-10-12T19:46:31.192Z,21.15
2022-10-12T19:50:33.110Z,18.17
2022-10-12T19:54:36.330Z,21.73
2022-10-12T19:58:37.869Z,16.20
2022-10-12T20:02:41.443Z,19.10
2022-10-12T20:06:43.242Z,17.80
2022-10-12T20:10:44.651Z,15.20
2022-10-12T20:14:46.026Z,21.38
2022-10-12T20:18:47.879Z,20.48
2022-10-12T20:22:49.332Z,20.42
2022-10-12T20:26:50.897Z,21.95
2022-10-12T20:30:52.288Z,21.20
2022-10-12T20:34:55.792Z,25.63
2022-10-12T20:38:58.555Z,19.85
2022-10-12T20:42:59.947Z,20.40
2022-10-12T20:47:01.400Z,22.00
2022-10-12T20:51:07.498Z,21.42
2022-10-12T20:55:09.801Z,23.95
2022-10-12T20:59:11.302Z,28.77
2022-10-12T21:03:12.975Z,20.95
2022-10-12T21:07:15.986Z,19.08
2022-10-12T21:11:17.798Z,20.00
2022-10-12T21:15:20.462Z,23.65
2022-10-12T21:19:22.022Z,22.60
2022-10-12T21:23:24.178Z,15.82
2022-10-12T21:27:25.910Z,25.45
2022-10-12T21:31:32.254Z,17.25
2022-10-12T21:35:34.754Z,26.35
2022-10-12T21:39:37.550Z,16.45
2022-10-12T21:43:44.282Z,19.70
2022-10-12T21:47:45.685Z,21.00
2022-10-12T21:51:47.250Z,24.15
2022-10-12T21:55:48.992Z,20.80
2022-10-12T21:59:50.680Z,19.08
2022-10-12T22:03:59.886Z,19.95
2022-10-12T22:08:01.490Z,19.75
2022-10-12T22:12:03.441Z,21.35
2022-10-12T22:16:08.721Z,22.02
2022-10-12T22:20:10.770Z,20.60
2022-10-12T22:24:14.239Z,22.88
2022-10-12T22:28:16.262Z,21.98
2022-10-12T22:32:18.452Z,17.63
2022-10-12T22:36:20.138Z,23.08
2022-10-12T22:40:21.639Z,22.00
2022-10-12T22:44:23.522Z,20.30
2022-10-12T22:48:25.552Z,16.92
2022-10-12T22:52:27.008Z,22.40
2022-10-12T22:56:29.443Z,19.33
2022-10-12T23:00:31.372Z,18.65
2022-10-12T23:04:33.548Z,27.27
2022-10-12T23:09:06.510Z,16.45
2022-10-12T23:13:08.077Z,17.88
2022-10-12T23:17:09.826Z,18.08
2022-10-12T23:21:13.886Z,20.33
2022-10-12T23:25:16.218Z,20.08
2022-10-12T23:29:17.824Z,16.85
2022-10-12T23:33:19.256Z,19.17
2022-10-12T23:37:20.747Z,19.75
2022-10-12T23:41:22.931Z,19.23
2022-10-12T23:45:24.410Z,22.10
2022-10-12T23:49:25.878Z,18.63
2022-10-12T23:53:28.064Z,19.52
2022-10-12T23:57:46.063Z,23.60
